sensor_id;sensor_type;location;lat;lon;timestamp;P1;durP1;ratioP1;P2;durP2;ratioP2
38312;SDS011;24114;52.260;6.714;2023-06-24T00:00:05;5.13;;;4.63;;
38312;SDS011;24114;52.260;6.714;2023-06-24T00:02:37;5.23;;;4.83;;
38312;SDS011;24114;52.260;6.714;2023-06-24T00:05:07;5.72;;;5.22;;
38312;SDS011;24114;52.260;6.714;2023-06-24T00:07:36;5.90;;;5.40;;
38312;SDS011;24114;52.260;6.714;2023-06-24T00:10:10;6.28;;;5.68;;
38312;SDS011;24114;52.260;6.714;2023-06-24T00:12:39;5.75;;;5.25;;
38312;SDS011;24114;52.260;6.714;2023-06-24T00:15:09;5.57;;;5.05;;
38312;SDS011;24114;52.260;6.714;2023-06-24T00:17:38;6.03;;;5.50;;
38312;SDS011;24114;52.260;6.714;2023-06-24T00:20:07;5.77;;;5.27;;
38312;SDS011;24114;52.260;6.714;2023-06-24T00:22:37;6.88;;;5.70;;
38312;SDS011;24114;52.260;6.714;2023-06-24T00:25:10;6.07;;;5.53;;
38312;SDS011;24114;52.260;6.714;2023-06-24T00:27:38;6.78;;;5.63;;
38312;SDS011;24114;52.260;6.714;2023-06-24T00:30:06;6.18;;;5.50;;
38312;SDS011;24114;52.260;6.714;2023-06-24T00:32:36;7.75;;;6.18;;
38312;SDS011;24114;52.260;6.714;2023-06-24T00:35:04;6.80;;;5.25;;
38312;SDS011;24114;52.260;6.714;2023-06-24T00:37:33;6.10;;;5.50;;
38312;SDS011;24114;52.260;6.714;2023-06-24T00:40:00;6.28;;;5.63;;
38312;SDS011;24114;52.260;6.714;2023-06-24T00:42:29;5.63;;;5.13;;
38312;SDS011;24114;52.260;6.714;2023-06-24T00:44:57;6.20;;;5.60;;
38312;SDS011;24114;52.260;6.714;2023-06-24T00:47:25;6.13;;;5.63;;
38312;SDS011;24114;52.260;6.714;2023-06-24T00:50:02;6.35;;;5.75;;
38312;SDS011;24114;52.260;6.714;2023-06-24T00:52:30;6.22;;;5.60;;
38312;SDS011;24114;52.260;6.714;2023-06-24T00:54:59;5.97;;;5.38;;
38312;SDS011;24114;52.260;6.714;2023-06-24T00:57:29;5.95;;;4.97;;
38312;SDS011;24114;52.260;6.714;2023-06-24T00:59:57;5.57;;;5.07;;
38312;SDS011;24114;52.260;6.714;2023-06-24T01:02:27;5.70;;;5.20;;
38312;SDS011;24114;52.260;6.714;2023-06-24T01:04:55;6.70;;;6.07;;
38312;SDS011;24114;52.260;6.714;2023-06-24T01:07:24;6.25;;;5.43;;
38312;SDS011;24114;52.260;6.714;2023-06-24T01:09:52;6.18;;;5.57;;
38312;SDS011;24114;52.260;6.714;2023-06-24T01:12:21;6.32;;;5.72;;
38312;SDS011;24114;52.260;6.714;2023-06-24T01:14:49;6.40;;;5.80;;
38312;SDS011;24114;52.260;6.714;2023-06-24T01:17:18;5.97;;;5.47;;
38312;SDS011;24114;52.260;6.714;2023-06-24T01:19:53;6.80;;;5.40;;
38312;SDS011;24114;52.260;6.714;2023-06-24T01:22:31;6.00;;;5.40;;
38312;SDS011;24114;52.260;6.714;2023-06-24T01:25:19;6.00;;;5.50;;
38312;SDS011;24114;52.260;6.714;2023-06-24T01:28:01;6.35;;;5.57;;
38312;SDS011;24114;52.260;6.714;2023-06-24T01:30:41;5.93;;;5.43;;
38312;SDS011;24114;52.260;6.714;2023-06-24T01:33:32;6.33;;;5.73;;
38312;SDS011;24114;52.260;6.714;2023-06-24T01:36:03;6.88;;;5.72;;
38312;SDS011;24114;52.260;6.714;2023-06-24T01:38:36;6.32;;;5.72;;
38312;SDS011;24114;52.260;6.714;2023-06-24T01:41:07;6.27;;;5.67;;
38312;SDS011;24114;52.260;6.714;2023-06-24T01:43:36;5.75;;;5.15;;
38312;SDS011;24114;52.260;6.714;2023-06-24T01:46:05;5.68;;;5.18;;
38312;SDS011;24114;52.260;6.714;2023-06-24T01:48:35;5.60;;;5.10;;
38312;SDS011;24114;52.260;6.714;2023-06-24T01:51:06;6.05;;;5.55;;
38312;SDS011;24114;52.260;6.714;2023-06-24T01:53:38;6.68;;;6.07;;
38312;SDS011;24114;52.260;6.714;2023-06-24T01:56:09;6.40;;;5.80;;
38312;SDS011;24114;52.260;6.714;2023-06-24T01:58:38;5.78;;;5.20;;
38312;SDS011;24114;52.260;6.714;2023-06-24T02:01:07;4.75;;;4.35;;
38312;SDS011;24114;52.260;6.714;2023-06-24T02:03:37;6.47;;;5.43;;
38312;SDS011;24114;52.260;6.714;2023-06-24T02:06:06;6.32;;;4.85;;
38312;SDS011;24114;52.260;6.714;2023-06-24T02:08:36;4.88;;;4.47;;
38312;SDS011;24114;52.260;6.714;2023-06-24T02:11:05;6.22;;;5.05;;
38312;SDS011;24114;52.260;6.714;2023-06-24T02:13:33;5.63;;;4.72;;
38312;SDS011;24114;52.260;6.714;2023-06-24T02:16:02;5.60;;;5.10;;
38312;SDS011;24114;52.260;6.714;2023-06-24T02:18:32;5.85;;;5.25;;
38312;SDS011;24114;52.260;6.714;2023-06-24T02:21:03;6.68;;;5.65;;
38312;SDS011;24114;52.260;6.714;2023-06-24T02:23:31;7.35;;;5.60;;
38312;SDS011;24114;52.260;6.714;2023-06-24T02:26:00;6.15;;;5.55;;
38312;SDS011;24114;52.260;6.714;2023-06-24T02:28:27;6.28;;;5.47;;
38312;SDS011;24114;52.260;6.714;2023-06-24T02:30:55;5.97;;;5.38;;
38312;SDS011;24114;52.260;6.714;2023-06-24T02:33:24;7.22;;;6.07;;
38312;SDS011;24114;52.260;6.714;2023-06-24T02:35:52;6.32;;;5.63;;
38312;SDS011;24114;52.260;6.714;2023-06-24T02:38:22;6.72;;;5.53;;
38312;SDS011;24114;52.260;6.714;2023-06-24T02:40:53;6.43;;;5.72;;
38312;SDS011;24114;52.260;6.714;2023-06-24T02:43:21;6.70;;;5.55;;
38312;SDS011;24114;52.260;6.714;2023-06-24T02:45:49;6.55;;;5.70;;
38312;SDS011;24114;52.260;6.714;2023-06-24T02:48:17;6.72;;;5.28;;
38312;SDS011;24114;52.260;6.714;2023-06-24T02:50:46;5.85;;;5.18;;
38312;SDS011;24114;52.260;6.714;2023-06-24T02:53:14;7.10;;;5.07;;
38312;SDS011;24114;52.260;6.714;2023-06-24T02:55:44;6.88;;;6.15;;
38312;SDS011;24114;52.260;6.714;2023-06-24T02:58:13;6.65;;;5.32;;
38312;SDS011;24114;52.260;6.714;2023-06-24T03:00:41;6.30;;;5.55;;
38312;SDS011;24114;52.260;6.714;2023-06-24T03:03:09;6.43;;;5.72;;
38312;SDS011;24114;52.260;6.714;2023-06-24T03:05:37;7.70;;;5.95;;
38312;SDS011;24114;52.260;6.714;2023-06-24T03:08:06;6.85;;;5.13;;
38312;SDS011;24114;52.260;6.714;2023-06-24T03:10:35;9.10;;;6.45;;
38312;SDS011;24114;52.260;6.714;2023-06-24T03:13:05;7.55;;;5.82;;
38312;SDS011;24114;52.260;6.714;2023-06-24T03:15:33;6.60;;;5.82;;
38312;SDS011;24114;52.260;6.714;2023-06-24T03:18:02;7.57;;;5.75;;
38312;SDS011;24114;52.260;6.714;2023-06-24T03:20:30;7.15;;;5.97;;
38312;SDS011;24114;52.260;6.714;2023-06-24T03:23:05;10.32;;;6.63;;
38312;SDS011;24114;52.260;6.714;2023-06-24T03:25:33;7.28;;;6.05;;
38312;SDS011;24114;52.260;6.714;2023-06-24T03:28:01;7.00;;;6.18;;
38312;SDS011;24114;52.260;6.714;2023-06-24T03:30:31;6.65;;;5.80;;
38312;SDS011;24114;52.260;6.714;2023-06-24T03:32:59;8.77;;;6.03;;
38312;SDS011;24114;52.260;6.714;2023-06-24T03:35:27;9.30;;;6.70;;
38312;SDS011;24114;52.260;6.714;2023-06-24T03:37:56;7.88;;;7.05;;
38312;SDS011;24114;52.260;6.714;2023-06-24T03:40:23;8.70;;;7.47;;
38312;SDS011;24114;52.260;6.714;2023-06-24T03:42:51;8.45;;;6.95;;
38312;SDS011;24114;52.260;6.714;2023-06-24T03:45:19;7.43;;;6.20;;
38312;SDS011;24114;52.260;6.714;2023-06-24T03:47:48;7.28;;;6.43;;
38312;SDS011;24114;52.260;6.714;2023-06-24T03:50:16;8.68;;;7.15;;
38312;SDS011;24114;52.260;6.714;2023-06-24T03:52:44;7.03;;;6.32;;
38312;SDS011;24114;52.260;6.714;2023-06-24T03:55:12;9.73;;;8.05;;
38312;SDS011;24114;52.260;6.714;2023-06-24T03:57:40;10.63;;;7.45;;
38312;SDS011;24114;52.260;6.714;2023-06-24T04:00:08;10.13;;;7.40;;
38312;SDS011;24114;52.260;6.714;2023-06-24T04:02:42;10.48;;;7.07;;
38312;SDS011;24114;52.260;6.714;2023-06-24T04:05:13;9.40;;;7.35;;
38312;SDS011;24114;52.260;6.714;2023-06-24T04:07:40;11.43;;;7.47;;
38312;SDS011;24114;52.260;6.714;2023-06-24T04:10:13;9.40;;;7.72;;
38312;SDS011;24114;52.260;6.714;2023-06-24T04:12:41;10.32;;;7.80;;
38312;SDS011;24114;52.260;6.714;2023-06-24T04:15:08;8.65;;;7.53;;
38312;SDS011;24114;52.260;6.714;2023-06-24T04:17:37;9.68;;;7.25;;
38312;SDS011;24114;52.260;6.714;2023-06-24T04:20:05;10.93;;;7.07;;
38312;SDS011;24114;52.260;6.714;2023-06-24T04:22:37;12.88;;;8.35;;
38312;SDS011;24114;52.260;6.714;2023-06-24T04:25:05;14.32;;;8.73;;
38312;SDS011;24114;52.260;6.714;2023-06-24T04:27:34;9.77;;;8.10;;
38312;SDS011;24114;52.260;6.714;2023-06-24T04:30:02;10.90;;;8.48;;
38312;SDS011;24114;52.260;6.714;2023-06-24T04:32:31;9.40;;;8.13;;
38312;SDS011;24114;52.260;6.714;2023-06-24T04:34:59;9.88;;;8.15;;
38312;SDS011;24114;52.260;6.714;2023-06-24T04:37:27;9.45;;;7.95;;
38312;SDS011;24114;52.260;6.714;2023-06-24T04:39:56;13.27;;;9.07;;
38312;SDS011;24114;52.260;6.714;2023-06-24T04:42:25;9.10;;;8.10;;
38312;SDS011;24114;52.260;6.714;2023-06-24T04:44:53;9.82;;;8.68;;
38312;SDS011;24114;52.260;6.714;2023-06-24T04:47:20;10.45;;;8.73;;
38312;SDS011;24114;52.260;6.714;2023-06-24T04:49:48;10.75;;;8.57;;
38312;SDS011;24114;52.260;6.714;2023-06-24T04:52:16;10.65;;;9.05;;
38312;SDS011;24114;52.260;6.714;2023-06-24T04:54:44;11.18;;;9.20;;
38312;SDS011;24114;52.260;6.714;2023-06-24T04:57:24;11.55;;;8.27;;
38312;SDS011;24114;52.260;6.714;2023-06-24T04:59:53;10.80;;;8.65;;
38312;SDS011;24114;52.260;6.714;2023-06-24T05:02:21;13.75;;;8.77;;
38312;SDS011;24114;52.260;6.714;2023-06-24T05:04:48;9.68;;;8.07;;
38312;SDS011;24114;52.260;6.714;2023-06-24T05:07:17;12.15;;;8.77;;
38312;SDS011;24114;52.260;6.714;2023-06-24T05:09:46;9.80;;;8.48;;
38312;SDS011;24114;52.260;6.714;2023-06-24T05:12:14;10.73;;;8.30;;
38312;SDS011;24114;52.260;6.714;2023-06-24T05:14:44;10.98;;;8.70;;
38312;SDS011;24114;52.260;6.714;2023-06-24T05:17:12;11.60;;;8.57;;
38312;SDS011;24114;52.260;6.714;2023-06-24T05:19:39;11.80;;;9.57;;
38312;SDS011;24114;52.260;6.714;2023-06-24T05:22:08;12.43;;;9.70;;
38312;SDS011;24114;52.260;6.714;2023-06-24T05:24:36;11.38;;;9.18;;
38312;SDS011;24114;52.260;6.714;2023-06-24T05:27:04;11.63;;;9.27;;
38312;SDS011;24114;52.260;6.714;2023-06-24T05:29:34;11.65;;;8.63;;
38312;SDS011;24114;52.260;6.714;2023-06-24T05:32:03;12.80;;;9.70;;
38312;SDS011;24114;52.260;6.714;2023-06-24T05:34:31;11.73;;;9.65;;
38312;SDS011;24114;52.260;6.714;2023-06-24T05:37:00;12.43;;;9.77;;
38312;SDS011;24114;52.260;6.714;2023-06-24T05:39:27;11.40;;;9.52;;
38312;SDS011;24114;52.260;6.714;2023-06-24T05:41:55;11.73;;;9.20;;
38312;SDS011;24114;52.260;6.714;2023-06-24T05:44:23;11.13;;;9.30;;
38312;SDS011;24114;52.260;6.714;2023-06-24T05:46:52;11.63;;;9.27;;
38312;SDS011;24114;52.260;6.714;2023-06-24T05:49:20;11.55;;;9.38;;
38312;SDS011;24114;52.260;6.714;2023-06-24T05:51:48;10.38;;;8.85;;
38312;SDS011;24114;52.260;6.714;2023-06-24T05:54:16;12.43;;;9.77;;
38312;SDS011;24114;52.260;6.714;2023-06-24T05:56:44;13.70;;;10.15;;
38312;SDS011;24114;52.260;6.714;2023-06-24T05:59:12;11.10;;;9.10;;
38312;SDS011;24114;52.260;6.714;2023-06-24T06:01:39;11.48;;;9.57;;
38312;SDS011;24114;52.260;6.714;2023-06-24T06:04:09;11.90;;;9.63;;
38312;SDS011;24114;52.260;6.714;2023-06-24T06:06:36;11.25;;;9.35;;
38312;SDS011;24114;52.260;6.714;2023-06-24T06:09:04;13.27;;;9.18;;
38312;SDS011;24114;52.260;6.714;2023-06-24T06:11:32;13.98;;;10.05;;
38312;SDS011;24114;52.260;6.714;2023-06-24T06:14:01;9.93;;;8.60;;
38312;SDS011;24114;52.260;6.714;2023-06-24T06:16:28;9.77;;;8.63;;
38312;SDS011;24114;52.260;6.714;2023-06-24T06:18:56;11.93;;;8.52;;
38312;SDS011;24114;52.260;6.714;2023-06-24T06:21:25;10.93;;;8.88;;
38312;SDS011;24114;52.260;6.714;2023-06-24T06:23:53;13.05;;;9.95;;
38312;SDS011;24114;52.260;6.714;2023-06-24T06:26:21;10.95;;;8.93;;
38312;SDS011;24114;52.260;6.714;2023-06-24T06:28:49;11.50;;;9.13;;
38312;SDS011;24114;52.260;6.714;2023-06-24T06:31:19;11.63;;;8.02;;
38312;SDS011;24114;52.260;6.714;2023-06-24T06:33:47;10.73;;;7.78;;
38312;SDS011;24114;52.260;6.714;2023-06-24T06:36:15;11.23;;;9.13;;
38312;SDS011;24114;52.260;6.714;2023-06-24T06:38:44;9.93;;;8.27;;
38312;SDS011;24114;52.260;6.714;2023-06-24T06:41:12;9.43;;;8.20;;
38312;SDS011;24114;52.260;6.714;2023-06-24T06:43:40;9.60;;;7.85;;
38312;SDS011;24114;52.260;6.714;2023-06-24T06:46:07;10.23;;;8.15;;
38312;SDS011;24114;52.260;6.714;2023-06-24T06:48:35;11.60;;;7.82;;
38312;SDS011;24114;52.260;6.714;2023-06-24T06:51:03;11.50;;;9.40;;
38312;SDS011;24114;52.260;6.714;2023-06-24T06:53:31;11.80;;;9.07;;
38312;SDS011;24114;52.260;6.714;2023-06-24T06:56:00;10.27;;;8.40;;
38312;SDS011;24114;52.260;6.714;2023-06-24T06:58:28;10.65;;;8.43;;
38312;SDS011;24114;52.260;6.714;2023-06-24T07:00:56;10.23;;;8.95;;
38312;SDS011;24114;52.260;6.714;2023-06-24T07:03:27;10.27;;;7.93;;
38312;SDS011;24114;52.260;6.714;2023-06-24T07:05:55;12.35;;;8.30;;
38312;SDS011;24114;52.260;6.714;2023-06-24T07:08:23;10.73;;;8.43;;
38312;SDS011;24114;52.260;6.714;2023-06-24T07:10:51;11.18;;;9.70;;
38312;SDS011;24114;52.260;6.714;2023-06-24T07:13:20;11.32;;;9.00;;
38312;SDS011;24114;52.260;6.714;2023-06-24T07:15:48;11.27;;;8.30;;
38312;SDS011;24114;52.260;6.714;2023-06-24T07:18:16;14.27;;;10.32;;
38312;SDS011;24114;52.260;6.714;2023-06-24T07:20:44;12.15;;;9.65;;
38312;SDS011;24114;52.260;6.714;2023-06-24T07:23:12;14.20;;;11.27;;
38312;SDS011;24114;52.260;6.714;2023-06-24T07:25:40;13.15;;;10.07;;
38312;SDS011;24114;52.260;6.714;2023-06-24T07:28:08;12.65;;;10.00;;
38312;SDS011;24114;52.260;6.714;2023-06-24T07:30:39;11.98;;;9.90;;
38312;SDS011;24114;52.260;6.714;2023-06-24T07:33:07;13.75;;;9.68;;
38312;SDS011;24114;52.260;6.714;2023-06-24T07:35:35;11.80;;;9.13;;
38312;SDS011;24114;52.260;6.714;2023-06-24T07:38:03;13.15;;;9.77;;
38312;SDS011;24114;52.260;6.714;2023-06-24T07:40:31;10.95;;;8.43;;
38312;SDS011;24114;52.260;6.714;2023-06-24T07:42:59;11.27;;;9.23;;
38312;SDS011;24114;52.260;6.714;2023-06-24T07:45:27;12.23;;;8.57;;
38312;SDS011;24114;52.260;6.714;2023-06-24T07:47:56;13.27;;;9.02;;
38312;SDS011;24114;52.260;6.714;2023-06-24T07:50:24;11.73;;;9.05;;
38312;SDS011;24114;52.260;6.714;2023-06-24T07:52:51;13.52;;;9.82;;
38312;SDS011;24114;52.260;6.714;2023-06-24T07:55:19;11.02;;;9.50;;
38312;SDS011;24114;52.260;6.714;2023-06-24T07:57:47;13.57;;;10.25;;
38312;SDS011;24114;52.260;6.714;2023-06-24T08:00:15;14.95;;;10.52;;
38312;SDS011;24114;52.260;6.714;2023-06-24T08:02:44;12.77;;;9.98;;
38312;SDS011;24114;52.260;6.714;2023-06-24T08:05:13;13.82;;;9.68;;
38312;SDS011;24114;52.260;6.714;2023-06-24T08:07:41;13.40;;;10.40;;
38312;SDS011;24114;52.260;6.714;2023-06-24T08:10:09;16.75;;;11.48;;
38312;SDS011;24114;52.260;6.714;2023-06-24T08:12:37;13.13;;;9.93;;
38312;SDS011;24114;52.260;6.714;2023-06-24T08:15:05;15.05;;;9.95;;
38312;SDS011;24114;52.260;6.714;2023-06-24T08:17:33;16.33;;;9.73;;
38312;SDS011;24114;52.260;6.714;2023-06-24T08:20:02;14.38;;;9.73;;
38312;SDS011;24114;52.260;6.714;2023-06-24T08:22:32;12.90;;;10.60;;
38312;SDS011;24114;52.260;6.714;2023-06-24T08:25:00;12.88;;;10.18;;
38312;SDS011;24114;52.260;6.714;2023-06-24T08:27:28;14.13;;;10.35;;
38312;SDS011;24114;52.260;6.714;2023-06-24T08:29:55;13.77;;;10.85;;
38312;SDS011;24114;52.260;6.714;2023-06-24T08:32:23;15.43;;;10.48;;
38312;SDS011;24114;52.260;6.714;2023-06-24T08:34:51;13.45;;;9.52;;
38312;SDS011;24114;52.260;6.714;2023-06-24T08:37:19;15.18;;;11.52;;
38312;SDS011;24114;52.260;6.714;2023-06-24T08:39:48;11.77;;;9.98;;
38312;SDS011;24114;52.260;6.714;2023-06-24T08:42:16;12.55;;;10.65;;
38312;SDS011;24114;52.260;6.714;2023-06-24T08:44:44;13.77;;;10.60;;
38312;SDS011;24114;52.260;6.714;2023-06-24T08:47:12;12.18;;;8.82;;
38312;SDS011;24114;52.260;6.714;2023-06-24T08:49:42;14.00;;;10.32;;
38312;SDS011;24114;52.260;6.714;2023-06-24T08:52:14;15.07;;;11.32;;
38312;SDS011;24114;52.260;6.714;2023-06-24T08:54:45;18.15;;;11.40;;
38312;SDS011;24114;52.260;6.714;2023-06-24T08:57:16;13.27;;;10.15;;
38312;SDS011;24114;52.260;6.714;2023-06-24T08:59:45;14.70;;;11.00;;
38312;SDS011;24114;52.260;6.714;2023-06-24T09:02:13;13.90;;;10.48;;
38312;SDS011;24114;52.260;6.714;2023-06-24T09:04:41;13.57;;;9.65;;
38312;SDS011;24114;52.260;6.714;2023-06-24T09:07:09;10.40;;;8.13;;
38312;SDS011;24114;52.260;6.714;2023-06-24T09:09:41;11.20;;;7.88;;
38312;SDS011;24114;52.260;6.714;2023-06-24T09:12:10;9.32;;;6.85;;
38312;SDS011;24114;52.260;6.714;2023-06-24T09:14:43;10.48;;;7.68;;
38312;SDS011;24114;52.260;6.714;2023-06-24T09:17:15;11.13;;;8.68;;
38312;SDS011;24114;52.260;6.714;2023-06-24T09:22:02;10.55;;;6.75;;
38312;SDS011;24114;52.260;6.714;2023-06-24T09:24:30;7.97;;;6.82;;
38312;SDS011;24114;52.260;6.714;2023-06-24T09:26:58;9.88;;;8.45;;
38312;SDS011;24114;52.260;6.714;2023-06-24T09:29:27;7.47;;;5.95;;
38312;SDS011;24114;52.260;6.714;2023-06-24T09:31:56;7.57;;;5.40;;
38312;SDS011;24114;52.260;6.714;2023-06-24T09:34:26;7.25;;;5.88;;
38312;SDS011;24114;52.260;6.714;2023-06-24T11:08:00;2.05;;;0.82;;
38312;SDS011;24114;52.260;6.714;2023-06-24T11:10:28;1.45;;;0.98;;
38312;SDS011;24114;52.260;6.714;2023-06-24T11:12:56;1.40;;;0.82;;
38312;SDS011;24114;52.260;6.714;2023-06-24T11:15:24;1.75;;;1.10;;
38312;SDS011;24114;52.260;6.714;2023-06-24T11:17:52;1.10;;;0.63;;
38312;SDS011;24114;52.260;6.714;2023-06-24T11:20:20;2.83;;;1.63;;
38312;SDS011;24114;52.260;6.714;2023-06-24T11:22:48;7.85;;;1.30;;
38312;SDS011;24114;52.260;6.714;2023-06-24T11:25:18;3.10;;;1.38;;
38312;SDS011;24114;52.260;6.714;2023-06-24T11:27:49;2.40;;;1.10;;
38312;SDS011;24114;52.260;6.714;2023-06-24T11:30:17;2.50;;;1.02;;
38312;SDS011;24114;52.260;6.714;2023-06-24T11:32:45;3.53;;;1.80;;
38312;SDS011;24114;52.260;6.714;2023-06-24T11:35:14;2.08;;;1.50;;
38312;SDS011;24114;52.260;6.714;2023-06-24T11:37:43;2.30;;;1.50;;
38312;SDS011;24114;52.260;6.714;2023-06-24T11:40:13;2.50;;;1.70;;
38312;SDS011;24114;52.260;6.714;2023-06-24T11:42:44;2.05;;;1.33;;
38312;SDS011;24114;52.260;6.714;2023-06-24T11:45:14;2.28;;;1.40;;
38312;SDS011;24114;52.260;6.714;2023-06-24T11:47:42;1.65;;;0.70;;
38312;SDS011;24114;52.260;6.714;2023-06-24T11:50:10;2.10;;;1.80;;
38312;SDS011;24114;52.260;6.714;2023-06-24T11:52:39;4.07;;;1.90;;
38312;SDS011;24114;52.260;6.714;2023-06-24T11:55:16;2.95;;;1.45;;
38312;SDS011;24114;52.260;6.714;2023-06-24T11:57:51;2.58;;;1.70;;
38312;SDS011;24114;52.260;6.714;2023-06-24T12:00:20;2.17;;;1.48;;
38312;SDS011;24114;52.260;6.714;2023-06-24T12:02:50;2.00;;;1.80;;
38312;SDS011;24114;52.260;6.714;2023-06-24T12:05:20;3.25;;;1.90;;
38312;SDS011;24114;52.260;6.714;2023-06-24T12:07:55;2.92;;;1.55;;
38312;SDS011;24114;52.260;6.714;2023-06-24T12:10:24;1.98;;;1.48;;
38312;SDS011;24114;52.260;6.714;2023-06-24T12:12:53;2.67;;;1.58;;
38312;SDS011;24114;52.260;6.714;2023-06-24T12:15:21;2.28;;;1.73;;
38312;SDS011;24114;52.260;6.714;2023-06-24T12:17:49;2.83;;;1.30;;
38312;SDS011;24114;52.260;6.714;2023-06-24T12:20:17;3.17;;;1.40;;
38312;SDS011;24114;52.260;6.714;2023-06-24T12:22:46;2.38;;;1.48;;
38312;SDS011;24114;52.260;6.714;2023-06-24T12:25:14;3.05;;;2.15;;
38312;SDS011;24114;52.260;6.714;2023-06-24T12:27:42;3.40;;;1.40;;
38312;SDS011;24114;52.260;6.714;2023-06-24T12:30:12;2.30;;;1.42;;
38312;SDS011;24114;52.260;6.714;2023-06-24T12:32:42;3.75;;;1.75;;
38312;SDS011;24114;52.260;6.714;2023-06-24T12:35:11;2.13;;;1.25;;
38312;SDS011;24114;52.260;6.714;2023-06-24T12:37:40;1.90;;;1.40;;
38312;SDS011;24114;52.260;6.714;2023-06-24T12:40:08;3.88;;;1.38;;
38312;SDS011;24114;52.260;6.714;2023-06-24T12:42:36;2.83;;;1.60;;
38312;SDS011;24114;52.260;6.714;2023-06-24T12:45:04;2.85;;;1.70;;
38312;SDS011;24114;52.260;6.714;2023-06-24T12:47:34;2.53;;;1.38;;
38312;SDS011;24114;52.260;6.714;2023-06-24T12:50:02;2.63;;;1.58;;
38312;SDS011;24114;52.260;6.714;2023-06-24T12:52:34;1.70;;;1.52;;
38312;SDS011;24114;52.260;6.714;2023-06-24T12:55:03;2.13;;;1.58;;
38312;SDS011;24114;52.260;6.714;2023-06-24T12:57:33;5.32;;;1.55;;
38312;SDS011;24114;52.260;6.714;2023-06-24T13:00:01;3.15;;;1.85;;
38312;SDS011;24114;52.260;6.714;2023-06-24T13:02:31;2.20;;;1.50;;
38312;SDS011;24114;52.260;6.714;2023-06-24T13:05:01;2.65;;;1.63;;
38312;SDS011;24114;52.260;6.714;2023-06-24T13:07:29;2.17;;;1.35;;
38312;SDS011;24114;52.260;6.714;2023-06-24T13:09:58;3.08;;;1.35;;
38312;SDS011;24114;52.260;6.714;2023-06-24T13:12:26;1.55;;;1.45;;
38312;SDS011;24114;52.260;6.714;2023-06-24T13:14:54;1.70;;;1.38;;
38312;SDS011;24114;52.260;6.714;2023-06-24T13:17:22;3.42;;;1.70;;
38312;SDS011;24114;52.260;6.714;2023-06-24T13:19:52;2.53;;;2.03;;
38312;SDS011;24114;52.260;6.714;2023-06-24T13:22:20;2.95;;;2.22;;
38312;SDS011;24114;52.260;6.714;2023-06-24T13:24:48;2.03;;;1.70;;
38312;SDS011;24114;52.260;6.714;2023-06-24T13:27:16;3.10;;;2.10;;
38312;SDS011;24114;52.260;6.714;2023-06-24T13:29:44;3.25;;;2.00;;
38312;SDS011;24114;52.260;6.714;2023-06-24T13:32:11;1.75;;;1.27;;
38312;SDS011;24114;52.260;6.714;2023-06-24T13:34:39;3.85;;;1.25;;
38312;SDS011;24114;52.260;6.714;2023-06-24T13:37:08;2.58;;;1.67;;
38312;SDS011;24114;52.260;6.714;2023-06-24T13:39:36;3.10;;;1.33;;
38312;SDS011;24114;52.260;6.714;2023-06-24T13:42:04;2.08;;;1.20;;
38312;SDS011;24114;52.260;6.714;2023-06-24T13:44:32;2.83;;;1.45;;
38312;SDS011;24114;52.260;6.714;2023-06-24T13:47:00;1.75;;;1.20;;
38312;SDS011;24114;52.260;6.714;2023-06-24T13:49:28;3.15;;;1.40;;
38312;SDS011;24114;52.260;6.714;2023-06-24T13:51:56;2.17;;;1.50;;
38312;SDS011;24114;52.260;6.714;2023-06-24T13:54:25;2.47;;;1.45;;
38312;SDS011;24114;52.260;6.714;2023-06-24T13:56:57;3.35;;;1.52;;
38312;SDS011;24114;52.260;6.714;2023-06-24T13:59:25;2.50;;;1.80;;
38312;SDS011;24114;52.260;6.714;2023-06-24T14:01:53;2.15;;;1.73;;
38312;SDS011;24114;52.260;6.714;2023-06-24T14:04:22;1.80;;;1.70;;
38312;SDS011;24114;52.260;6.714;2023-06-24T14:06:50;4.43;;;1.60;;
38312;SDS011;24114;52.260;6.714;2023-06-24T14:09:19;1.98;;;1.30;;
38312;SDS011;24114;52.260;6.714;2023-06-24T14:11:49;1.98;;;1.52;;
38312;SDS011;24114;52.260;6.714;2023-06-24T14:14:17;2.85;;;1.80;;
38312;SDS011;24114;52.260;6.714;2023-06-24T14:16:45;1.50;;;1.40;;
38312;SDS011;24114;52.260;6.714;2023-06-24T14:19:13;1.52;;;1.27;;
38312;SDS011;24114;52.260;6.714;2023-06-24T14:21:41;2.30;;;1.40;;
38312;SDS011;24114;52.260;6.714;2023-06-24T14:24:09;2.47;;;1.92;;
38312;SDS011;24114;52.260;6.714;2023-06-24T14:26:42;2.13;;;1.63;;
38312;SDS011;24114;52.260;6.714;2023-06-24T14:29:11;5.65;;;1.58;;
38312;SDS011;24114;52.260;6.714;2023-06-24T14:31:39;1.73;;;1.33;;
38312;SDS011;24114;52.260;6.714;2023-06-24T14:34:07;4.72;;;2.00;;
38312;SDS011;24114;52.260;6.714;2023-06-24T14:36:35;2.92;;;1.25;;
38312;SDS011;24114;52.260;6.714;2023-06-24T14:39:03;1.90;;;1.50;;
38312;SDS011;24114;52.260;6.714;2023-06-24T14:41:31;1.67;;;1.40;;
38312;SDS011;24114;52.260;6.714;2023-06-24T14:43:59;2.10;;;1.27;;
38312;SDS011;24114;52.260;6.714;2023-06-24T14:46:29;2.80;;;1.80;;
38312;SDS011;24114;52.260;6.714;2023-06-24T14:48:57;2.47;;;1.60;;
38312;SDS011;24114;52.260;6.714;2023-06-24T14:51:24;2.25;;;1.73;;
38312;SDS011;24114;52.260;6.714;2023-06-24T14:53:53;1.85;;;1.65;;
38312;SDS011;24114;52.260;6.714;2023-06-24T14:56:21;1.55;;;1.45;;
38312;SDS011;24114;52.260;6.714;2023-06-24T14:58:50;2.08;;;1.42;;
38312;SDS011;24114;52.260;6.714;2023-06-24T15:01:17;2.92;;;1.67;;
38312;SDS011;24114;52.260;6.714;2023-06-24T15:03:47;7.85;;;1.73;;
38312;SDS011;24114;52.260;6.714;2023-06-24T15:06:15;4.10;;;2.22;;
38312;SDS011;24114;52.260;6.714;2023-06-24T15:08:42;2.47;;;1.60;;
38312;SDS011;24114;52.260;6.714;2023-06-24T15:11:10;2.33;;;1.80;;
38312;SDS011;24114;52.260;6.714;2023-06-24T15:13:40;1.98;;;1.60;;
38312;SDS011;24114;52.260;6.714;2023-06-24T15:16:08;1.77;;;1.63;;
38312;SDS011;24114;52.260;6.714;2023-06-24T15:18:43;4.15;;;1.67;;
38312;SDS011;24114;52.260;6.714;2023-06-24T15:21:13;2.40;;;1.55;;
38312;SDS011;24114;52.260;6.714;2023-06-24T15:24:01;1.85;;;1.63;;
38312;SDS011;24114;52.260;6.714;2023-06-24T15:27:27;2.90;;;1.25;;
38312;SDS011;24114;52.260;6.714;2023-06-24T15:29:55;2.42;;;1.80;;
38312;SDS011;24114;52.260;6.714;2023-06-24T15:32:23;2.53;;;1.77;;
38312;SDS011;24114;52.260;6.714;2023-06-24T15:34:51;4.45;;;1.70;;
38312;SDS011;24114;52.260;6.714;2023-06-24T15:37:18;2.58;;;1.75;;
38312;SDS011;24114;52.260;6.714;2023-06-24T15:39:46;2.65;;;1.63;;
38312;SDS011;24114;52.260;6.714;2023-06-24T15:42:14;1.98;;;1.77;;
38312;SDS011;24114;52.260;6.714;2023-06-24T15:44:43;3.47;;;1.80;;
38312;SDS011;24114;52.260;6.714;2023-06-24T15:47:11;2.03;;;1.83;;
38312;SDS011;24114;52.260;6.714;2023-06-24T15:49:39;3.10;;;2.13;;
38312;SDS011;24114;52.260;6.714;2023-06-24T15:52:07;2.08;;;1.65;;
38312;SDS011;24114;52.260;6.714;2023-06-24T15:54:35;2.75;;;1.40;;
38312;SDS011;24114;52.260;6.714;2023-06-24T15:57:03;1.95;;;1.55;;
38312;SDS011;24114;52.260;6.714;2023-06-24T15:59:31;1.73;;;1.60;;
38312;SDS011;24114;52.260;6.714;2023-06-24T16:02:01;2.53;;;1.90;;
38312;SDS011;24114;52.260;6.714;2023-06-24T16:04:29;2.45;;;1.67;;
38312;SDS011;24114;52.260;6.714;2023-06-24T16:06:57;4.20;;;1.73;;
38312;SDS011;24114;52.260;6.714;2023-06-24T16:09:25;2.42;;;2.15;;
38312;SDS011;24114;52.260;6.714;2023-06-24T16:11:55;2.13;;;1.95;;
38312;SDS011;24114;52.260;6.714;2023-06-24T16:14:26;2.00;;;1.67;;
38312;SDS011;24114;52.260;6.714;2023-06-24T16:16:53;1.60;;;1.50;;
38312;SDS011;24114;52.260;6.714;2023-06-24T16:19:23;3.75;;;1.65;;
38312;SDS011;24114;52.260;6.714;2023-06-24T16:21:50;2.42;;;1.95;;
38312;SDS011;24114;52.260;6.714;2023-06-24T16:24:18;2.28;;;2.00;;
38312;SDS011;24114;52.260;6.714;2023-06-24T16:26:46;2.67;;;2.20;;